Time;durP1;ratioP1;P1;durP2;ratioP2;P2;SDS_P1;SDS_P2;PMS_P1;PMS_P2;Temp;Humidity;BMP_temperature;BMP_pressure;BME280_temperature;BME280_humidity;BME280_pressure;Samples;Min_cycle;Max_cycle;Signal;HPM_P1;HPM_P2
2022/06/11 00:01:12;;;;;;;;;;;16.60;99.90;;;;;;5056259;28;20055;-75
2022/06/11 00:03:38;;;;;;;6.65;5.10;;;16.70;99.90;;;;;;5072513;28;19924;-75
2022/06/11 00:06:04;;;;;;;6.88;4.45;;;16.70;99.90;;;;;;5055911;28;20056;-75
2022/06/11 00:08:30;;;;;;;7.03;4.38;;;16.70;99.90;;;;;;5072293;28;20508;-75
2022/06/11 00:10:56;;;;;;;6.80;3.70;;;16.80;99.90;;;;;;5072611;28;20044;-75
2022/06/11 00:13:22;;;;;;;6.80;3.63;;;16.80;99.90;;;;;;5055758;28;20489;-75
2022/06/11 00:15:50;;;;;;;5.32;3.03;;;16.80;99.90;;;;;;5072552;28;20032;-75
2022/06/11 00:18:18;;;;;;;4.93;3.47;;;16.70;99.90;;;;;;5055776;28;20070;-76
2022/06/11 00:20:43;;;;;;;5.55;3.38;;;16.70;99.90;;;;;;5072260;28;20086;-76
2022/06/11 00:23:09;;;;;;;7.40;3.65;;;16.70;99.90;;;;;;5071899;28;20139;-75
2022/06/11 00:25:35;;;;;;;6.18;3.90;;;16.70;99.90;;;;;;5072104;28;20097;-76
2022/06/11 00:28:03;;;;;;;6.28;3.50;;;16.60;99.90;;;;;;5055430;28;20047;-75
2022/06/11 00:30:29;;;;;;;7.05;2.92;;;16.60;99.90;;;;;;5071868;28;20043;-75
2022/06/11 00:32:55;;;;;;;4.18;2.95;;;16.60;99.90;;;;;;5071929;28;20051;-75
2022/06/11 00:35:22;;;;;;;5.93;2.58;;;16.60;99.90;;;;;;5071828;28;20044;-76
2022/06/11 00:37:49;;;;;;;8.27;2.97;;;16.60;99.90;;;;;;5071948;28;20042;-76
2022/06/11 00:40:18;;;;;;;4.93;2.58;;;16.60;99.90;;;;;;5072097;28;20631;-76
2022/06/11 00:42:43;;;;;;;6.95;2.88;;;16.60;99.90;;;;;;5071918;28;20036;-76
2022/06/11 00:45:32;;;;;;;4.13;2.80;;;16.50;99.90;;;;;;5071687;28;20036;-76
2022/06/11 00:48:04;;;;;;;5.47;3.35;;;16.50;99.90;;;;;;5071880;28;20037;-76
2022/06/11 00:50:44;;;;;;;5.85;2.97;;;16.40;99.90;;;;;;5071639;28;20528;-76
2022/06/11 00:53:36;;;;;;;6.28;2.40;;;16.40;99.90;;;;;;5071670;28;20044;-75
2022/06/11 00:56:05;;;;;;;6.68;2.70;;;16.30;99.90;;;;;;5052286;28;20094;-76
2022/06/11 00:58:37;;;;;;;8.73;2.75;;;16.20;99.90;;;;;;5071518;28;20048;-76
2022/06/11 01:01:02;;;;;;;;;;;16.10;99.90;;;;;;5072070;28;20128;-76
2022/06/11 01:03:40;;;;;;;6.45;2.80;;;16.10;99.90;;;;;;5071651;28;20007;-76
2022/06/11 01:06:29;;;;;;;6.10;2.28;;;16.10;99.90;;;;;;5071753;28;20045;-75
2022/06/11 01:09:01;;;;;;;5.60;2.28;;;16.10;99.90;;;;;;5071366;28;20040;-76
2022/06/11 01:12:05;;;;;;;6.77;2.83;;;16.00;99.90;;;;;;5071616;28;20082;-76
2022/06/11 01:14:42;;;;;;;4.88;2.13;;;16.00;99.90;;;;;;5071224;28;20271;-76
2022/06/11 01:17:36;;;;;;;5.70;2.03;;;15.90;99.90;;;;;;5071269;28;20040;-76
2022/06/11 01:20:13;;;;;;;4.75;2.20;;;15.80;99.90;;;;;;5054591;28;20053;-76
2022/06/11 01:22:52;;;;;;;4.38;2.22;;;15.70;99.90;;;;;;5071252;28;20131;-76
2022/06/11 01:25:32;;;;;;;5.03;2.05;;;15.70;99.90;;;;;;5071035;28;20105;-76
2022/06/11 01:28:35;;;;;;;6.68;2.50;;;15.60;99.90;;;;;;5071004;28;20037;-76
2022/06/11 01:31:07;;;;;;;5.20;2.05;;;15.60;99.90;;;;;;5070812;28;20044;-76
2022/06/11 01:33:40;;;;;;;6.82;2.05;;;15.50;99.90;;;;;;5054661;28;20036;-76
2022/06/11 01:36:29;;;;;;;7.65;2.20;;;15.50;99.90;;;;;;5070651;28;20090;-76
2022/06/11 01:39:04;;;;;;;4.90;1.90;;;15.40;99.90;;;;;;5054071;28;20041;-76
2022/06/11 01:41:46;;;;;;;3.92;1.90;;;15.40;99.90;;;;;;5070836;28;20115;-76
2022/06/11 01:44:17;;;;;;;7.05;2.35;;;15.30;99.90;;;;;;5070744;28;20047;-76
2022/06/11 01:46:47;;;;;;;5.75;2.20;;;15.30;99.90;;;;;;5053850;28;20044;-76
2022/06/11 01:49:22;;;;;;;8.23;2.92;;;15.30;99.90;;;;;;5054278;28;20416;-76
2022/06/11 01:52:12;;;;;;;6.93;2.30;;;15.20;99.90;;;;;;5054082;28;20489;-76
2022/06/11 01:55:27;;;;;;;7.55;2.28;;;15.20;99.90;;;;;;5070683;28;20424;-76
2022/06/11 01:58:27;;;;;;;6.07;2.22;;;15.10;99.90;;;;;;5054007;28;20055;-75
2022/06/11 02:01:11;;;;;;;6.53;2.08;;;15.00;99.90;;;;;;5070300;28;20370;-75
2022/06/11 02:03:58;;;;;;;9.05;2.83;;;15.00;99.90;;;;;;5053614;28;20481;-75
2022/06/11 02:06:46;;;;;;;5.82;2.63;;;14.90;99.90;;;;;;5070286;28;20101;-75
2022/06/11 02:09:35;;;;;;;6.38;2.53;;;14.80;99.90;;;;;;5053504;28;20041;-75
2022/06/11 02:12:15;;;;;;;3.78;2.28;;;14.80;99.90;;;;;;5070268;28;20043;-75
2022/06/11 02:15:04;;;;;;;5.32;2.42;;;14.80;99.90;;;;;;5070341;28;20043;-75
2022/06/11 02:17:36;;;;;;;4.93;2.67;;;14.80;99.90;;;;;;5070004;28;20048;-75
2022/06/11 02:20:04;;;;;;;6.95;2.72;;;14.70;99.90;;;;;;5069416;28;20047;-75
2022/06/11 02:22:34;;;;;;;7.28;2.60;;;14.70;99.90;;;;;;5069958;28;20037;-75
2022/06/11 02:25:13;;;;;;;4.15;2.58;;;14.60;99.90;;;;;;5069939;28;20052;-75
2022/06/11 02:27:41;;;;;;;6.72;3.13;;;14.50;99.90;;;;;;5069994;28;20028;-76
2022/06/11 02:30:11;;;;;;;4.88;2.92;;;14.50;99.90;;;;;;5069785;28;20044;-75
2022/06/11 02:32:37;;;;;;;5.10;2.90;;;14.40;99.90;;;;;;5053020;28;20490;-75
2022/06/11 02:35:10;;;;;;;6.97;3.00;;;14.40;99.90;;;;;;5069693;28;20040;-75
2022/06/11 02:37:41;;;;;;;6.97;3.40;;;14.30;99.90;;;;;;5052879;28;20050;-75
2022/06/11 02:40:15;;;;;;;9.00;3.60;;;14.30;99.90;;;;;;5070183;28;20433;-75
2022/06/11 02:42:42;;;;;;;5.55;3.13;;;14.30;99.90;;;;;;5069324;28;20036;-75
2022/06/11 02:45:10;;;;;;;7.05;3.50;;;14.30;99.90;;;;;;5053045;28;20087;-75
2022/06/11 02:47:37;;;;;;;7.78;3.45;;;14.30;99.90;;;;;;5069335;28;20032;-75
2022/06/11 02:50:03;;;;;;;8.20;3.10;;;14.30;99.90;;;;;;5052658;28;20088;-75
2022/06/11 02:52:29;;;;;;;4.00;3.28;;;14.30;99.90;;;;;;5069309;28;20065;-75
2022/06/11 02:54:55;;;;;;;6.57;3.70;;;14.30;99.90;;;;;;5069671;28;20052;-75
2022/06/11 02:57:25;;;;;;;8.57;4.30;;;14.30;99.90;;;;;;5052671;28;20780;-75
2022/06/11 02:59:52;;;;;;;8.05;3.95;;;14.30;99.90;;;;;;5069505;28;20508;-75
2022/06/11 03:02:19;;;;;;;6.35;3.75;;;14.20;99.90;;;;;;5052471;28;20100;-75
2022/06/11 03:04:45;;;;;;;9.27;5.25;;;14.20;99.90;;;;;;5069334;28;20079;-75
2022/06/11 03:07:10;;;;;;;10.82;6.13;;;14.20;99.90;;;;;;5069073;28;20068;-75
2022/06/11 03:09:38;;;;;;;14.10;5.80;;;14.20;99.90;;;;;;5069230;28;20056;-75
2022/06/11 03:12:06;;;;;;;7.60;5.70;;;14.10;99.90;;;;;;5068794;28;20123;-75
2022/06/11 03:14:32;;;;;;;10.27;5.53;;;14.10;99.90;;;;;;5068924;28;20044;-75
2022/06/11 03:16:58;;;;;;;9.48;5.68;;;14.10;99.90;;;;;;5068916;28;20047;-75
2022/06/11 03:19:24;;;;;;;11.20;6.70;;;14.10;99.90;;;;;;5068489;28;20041;-75
2022/06/11 03:21:53;;;;;;;11.73;6.53;;;14.10;99.90;;;;;;5068409;28;20051;-75
2022/06/11 03:24:20;;;;;;;11.90;6.80;;;14.10;99.90;;;;;;5069006;28;20063;-75
2022/06/11 03:26:47;;;;;;;9.63;6.05;;;14.10;99.90;;;;;;5052083;28;20037;-75
2022/06/11 03:29:13;;;;;;;14.13;6.00;;;14.20;99.90;;;;;;5068907;28;20574;-76
2022/06/11 03:31:38;;;;;;;12.32;5.60;;;14.20;99.90;;;;;;5068101;28;20052;-75
2022/06/11 03:34:04;;;;;;;12.60;5.50;;;14.30;99.90;;;;;;5068914;28;20045;-75
2022/06/11 03:36:30;;;;;;;13.60;5.30;;;14.40;99.90;;;;;;5068990;28;20040;-75
2022/06/11 03:38:56;;;;;;;16.63;5.30;;;14.40;99.90;;;;;;5068828;28;20037;-75
2022/06/11 03:41:23;;;;;;;10.73;4.47;;;14.50;99.90;;;;;;5068716;28;20378;-75
2022/06/11 03:43:50;;;;;;;13.60;5.57;;;14.50;99.90;;;;;;5051875;28;20090;-76
2022/06/11 03:46:17;;;;;;;11.00;4.65;;;14.50;99.90;;;;;;5052036;28;20666;-75
2022/06/11 03:48:43;;;;;;;11.98;5.07;;;14.50;99.90;;;;;;5068646;28;20482;-75
2022/06/11 03:51:09;;;;;;;12.13;4.80;;;14.60;99.90;;;;;;5052273;28;20072;-75
2022/06/11 03:53:37;;;;;;;11.90;4.75;;;14.60;99.90;;;;;;5068604;28;20386;-75
2022/06/11 03:56:04;;;;;;;9.82;5.00;;;14.70;99.90;;;;;;5052055;28;20072;-75
2022/06/11 03:58:30;;;;;;;12.52;5.80;;;14.80;99.90;;;;;;5068694;28;20037;-75
2022/06/11 04:03:52;;;;;;;13.20;7.10;;;14.90;99.90;;;;;;5068672;28;20479;-76
2022/06/11 04:06:24;;;;;;;11.23;5.90;;;15.00;99.90;;;;;;5051932;28;20067;-75
2022/06/11 04:08:50;;;;;;;13.27;7.28;;;15.10;99.90;;;;;;5068419;28;20055;-75
2022/06/11 04:11:17;;;;;;;12.15;6.50;;;15.10;99.90;;;;;;5069020;28;20480;-76
2022/06/11 04:13:44;;;;;;;10.38;7.43;;;15.20;99.90;;;;;;5068341;28;20044;-75
2022/06/11 04:16:38;;;;;;;13.43;8.55;;;15.20;99.90;;;;;;5051860;28;20041;-75
2022/06/11 04:19:06;;;;;;;15.45;8.65;;;15.30;99.90;;;;;;5084753;28;20049;-75
2022/06/11 04:21:35;;;;;;;13.50;8.98;;;15.30;99.90;;;;;;5068241;28;20048;-75
2022/06/11 04:24:02;;;;;;;13.30;9.30;;;15.30;99.90;;;;;;5051438;28;20508;-75
2022/06/11 04:26:32;;;;;;;12.82;9.18;;;15.30;99.90;;;;;;5068601;28;20076;-76
2022/06/11 04:28:59;;;;;;;13.70;9.40;;;15.30;99.90;;;;;;5068309;28;20036;-76
2022/06/11 04:31:26;;;;;;;14.07;10.10;;;15.30;99.90;;;;;;5051671;28;20033;-75
2022/06/11 04:33:52;;;;;;;13.70;11.00;;;15.30;99.90;;;;;;5068137;28;20047;-76
2022/06/11 04:36:22;;;;;;;17.23;11.20;;;15.30;99.90;;;;;;5068270;28;20041;-76
2022/06/11 04:38:47;;;;;;;14.20;8.38;;;15.30;99.90;;;;;;5051644;28;20045;-76
2022/06/11 04:41:13;;;;;;;16.02;10.80;;;15.40;99.90;;;;;;5068142;28;20059;-75
2022/06/11 04:43:41;;;;;;;12.30;10.00;;;15.40;99.90;;;;;;5055010;28;20071;-75
2022/06/11 04:46:08;;;;;;;12.85;9.40;;;15.40;99.90;;;;;;5071774;28;20146;-76
2022/06/11 04:48:34;;;;;;;15.07;8.65;;;15.40;99.90;;;;;;5054912;28;20033;-76
2022/06/11 04:51:00;;;;;;;13.52;9.15;;;15.40;99.90;;;;;;5071599;28;20059;-76
2022/06/11 04:53:25;;;;;;;11.65;8.70;;;15.50;99.90;;;;;;5071542;28;20131;-75
2022/06/11 04:55:51;;;;;;;10.55;7.53;;;15.50;99.90;;;;;;5071753;28;20127;-76
2022/06/11 04:58:17;;;;;;;11.93;8.80;;;15.60;99.90;;;;;;5071436;28;20048;-76
2022/06/11 05:00:43;;;;;;;11.73;7.55;;;15.70;99.90;;;;;;5071522;28;20087;-75
2022/06/11 05:03:09;;;;;;;14.27;8.07;;;15.70;99.90;;;;;;5071336;28;20067;-76
2022/06/11 05:05:35;;;;;;;13.35;8.18;;;15.70;99.90;;;;;;5071808;28;20044;-76
2022/06/11 05:08:01;;;;;;;15.98;8.10;;;15.80;99.90;;;;;;5071520;28;20036;-76
2022/06/11 05:10:29;;;;;;;14.40;8.40;;;15.90;99.90;;;;;;5071309;28;20072;-76
2022/06/11 05:12:55;;;;;;;12.32;7.38;;;15.90;99.90;;;;;;5071320;28;20037;-76
2022/06/11 05:15:22;;;;;;;12.15;7.32;;;16.00;99.90;;;;;;5071341;28;20048;-76
2022/06/11 05:17:48;;;;;;;13.35;7.32;;;16.10;99.90;;;;;;5054449;28;20082;-76
2022/06/11 05:20:15;;;;;;;14.25;6.60;;;16.10;99.90;;;;;;5054432;28;20040;-76
2022/06/11 05:22:42;;;;;;;16.92;6.47;;;16.20;99.90;;;;;;5071077;28;20041;-77
2022/06/11 05:25:09;;;;;;;13.43;5.53;;;16.30;99.90;;;;;;5054114;28;20067;-77
2022/06/11 05:27:34;;;;;;;13.10;5.32;;;16.30;99.90;;;;;;5071053;28;20046;-76
2022/06/11 05:30:15;;;;;;;13.60;4.57;;;16.40;99.90;;;;;;5070837;28;20509;-76
2022/06/11 05:32:41;;;;;;;11.82;4.97;;;16.50;99.90;;;;;;5071201;28;20044;-76
2022/06/11 05:35:09;;;;;;;15.88;4.35;;;16.60;99.90;;;;;;5054146;28;20052;-76
2022/06/11 05:37:35;;;;;;;11.45;3.90;;;16.70;99.90;;;;;;5070969;28;20048;-76
2022/06/11 05:40:01;;;;;;;11.25;3.28;;;16.80;99.90;;;;;;5070754;28;20405;-76
2022/06/11 05:42:27;;;;;;;11.50;4.25;;;16.90;99.90;;;;;;5070514;28;20122;-76
2022/06/11 05:44:53;;;;;;;15.18;4.38;;;17.10;99.90;;;;;;5070562;28;20041;-76
2022/06/11 05:47:22;;;;;;;13.57;4.07;;;17.40;99.90;;;;;;5070704;28;20047;-76
2022/06/11 05:49:52;;;;;;;13.85;3.90;;;18.70;99.90;;;;;;5070542;28;20079;-77
2022/06/11 05:52:31;;;;;;;13.00;3.78;;;20.10;99.90;;;;;;5054196;28;20040;-77
2022/06/11 05:54:57;;;;;;;13.50;3.80;;;21.20;99.90;;;;;;5069605;28;20037;-76
2022/06/11 05:57:26;;;;;;;14.80;3.90;;;22.10;99.90;;;;;;5070471;28;20051;-76
2022/06/11 06:00:00;;;;;;;15.15;2.95;;;22.70;99.90;;;;;;5070295;28;20677;-77
2022/06/11 06:02:27;;;;;;;11.57;3.38;;;23.30;99.90;;;;;;5070417;28;20166;-77
2022/06/11 06:04:53;;;;;;;10.88;3.63;;;23.60;99.90;;;;;;5070460;28;20416;-77
2022/06/11 06:07:19;;;;;;;12.88;3.63;;;23.90;99.30;;;;;;5053887;28;20089;-77
2022/06/11 06:09:45;;;;;;;13.88;3.92;;;;;;;;;;5070014;28;20036;-77
2022/06/11 06:12:10;;;;;;;12.70;3.70;;;24.10;98.80;;;;;;5070422;28;20095;-77
2022/06/11 06:14:36;;;;;;;14.55;3.70;;;24.60;97.90;;;;;;5070288;28;20510;-77
2022/06/11 06:17:02;;;;;;;13.10;3.72;;;24.80;96.70;;;;;;5053485;28;20513;-77
2022/06/11 06:19:28;;;;;;;14.10;4.20;;;25.30;96.80;;;;;;5053504;28;20581;-76
2022/06/11 06:21:53;;;;;;;13.40;3.45;;;25.80;95.80;;;;;;5069875;28;20048;-75
2022/06/11 06:24:19;;;;;;;12.93;3.58;;;26.00;95.80;;;;;;5053104;28;20052;-77
2022/06/11 06:26:44;;;;;;;15.52;4.03;;;26.10;93.90;;;;;;5053249;28;20466;-76
2022/06/11 06:29:10;;;;;;;15.48;3.55;;;26.50;94.50;;;;;;5070024;28;20044;-78
2022/06/11 06:31:37;;;;;;;13.00;3.70;;;26.90;93.80;;;;;;5069838;28;20044;-77
2022/06/11 06:34:03;;;;;;;16.77;3.97;;;26.90;93.10;;;;;;5070124;28;20094;-78
2022/06/11 06:36:30;;;;;;;12.20;3.67;;;26.50;92.30;;;;;;5053093;28;20481;-77
2022/06/11 06:38:56;;;;;;;17.17;4.68;;;26.20;93.00;;;;;;5053382;28;20087;-77
2022/06/11 06:41:22;;;;;;;12.13;3.50;;;26.10;92.90;;;;;;5053142;28;20080;-77
2022/06/11 06:43:49;;;;;;;11.93;3.45;;;26.00;93.60;;;;;;5069915;28;20496;-77
2022/06/11 06:46:16;;;;;;;13.50;3.78;;;25.60;92.60;;;;;;5069546;28;20120;-76
2022/06/11 06:48:43;;;;;;;14.05;3.75;;;25.50;93.10;;;;;;5069564;28;20048;-76
2022/06/11 06:51:10;;;;;;;12.63;3.65;;;25.90;92.30;;;;;;5069376;28;20040;-77
2022/06/11 06:53:37;;;;;;;10.85;3.35;;;26.30;92.10;;;;;;5052669;28;20044;-77
2022/06/11 06:56:03;;;;;;;14.45;4.40;;;26.70;91.20;;;;;;5069480;28;20064;-76
2022/06/11 06:58:29;;;;;;;14.52;4.15;;;26.70;91.70;;;;;;5052903;28;20040;-76
2022/06/11 07:00:55;;;;;;;15.32;4.20;;;27.10;90.70;;;;;;5069174;28;20097;-76
2022/06/11 07:03:21;;;;;;;14.50;4.05;;;27.40;90.40;;;;;;5069176;28;20513;-76
2022/06/11 07:05:46;;;;;;;17.92;4.05;;;27.30;89.60;;;;;;5068869;28;20082;-76
2022/06/11 07:08:13;;;;;;;12.38;3.92;;;27.40;90.30;;;;;;5052523;28;20072;-75
2022/06/11 07:10:39;;;;;;;13.02;3.75;;;;;;;;;;5069124;28;20037;-76
2022/06/11 07:13:05;;;;;;;15.20;4.22;;;28.00;88.00;;;;;;5069333;28;20139;-75
2022/06/11 07:15:31;;;;;;;13.48;4.10;;;28.10;87.20;;;;;;5069413;28;20135;-76
2022/06/11 07:18:20;;;;;;;16.35;4.22;;;28.20;85.90;;;;;;5069077;28;20477;-75
2022/06/11 07:20:47;;;;;;;14.73;4.00;;;27.80;86.20;;;;;;5069229;28;20501;-76
2022/06/11 07:23:35;;;;;;;12.85;3.70;;;27.70;87.30;;;;;;5068824;28;20556;-75
2022/06/11 07:26:04;;;;;;;12.52;3.85;;;28.10;85.50;;;;;;5068994;28;20032;-75
2022/06/11 07:28:36;;;;;;;13.25;3.63;;;28.30;86.00;;;;;;5052174;28;20044;-75
2022/06/11 07:31:02;;;;;;;14.88;3.83;;;28.30;84.30;;;;;;5068809;28;20386;-75
2022/06/11 07:33:28;;;;;;;14.95;3.75;;;28.00;85.50;;;;;;5052240;28;20097;-75
2022/06/11 07:35:54;;;;;;;18.02;4.63;;;28.00;85.50;;;;;;5052036;28;20041;-75
2022/06/11 07:38:22;;;;;;;15.95;4.03;;;28.20;83.80;;;;;;5068893;28;20040;-75
2022/06/11 07:40:48;;;;;;;13.95;4.80;;;28.70;83.70;;;;;;5051987;28;20576;-75
2022/06/11 07:43:14;;;;;;;14.77;3.90;;;;;;;;;;5068741;28;20084;-75
2022/06/11 07:45:41;;;;;;;16.08;4.10;;;28.80;79.60;;;;;;5068642;28;20079;-75
2022/06/11 07:48:08;;;;;;;13.48;4.35;;;28.40;81.70;;;;;;5052305;28;20048;-76
2022/06/11 07:50:36;;;;;;;17.10;4.07;;;27.70;81.50;;;;;;5068981;28;20101;-75
2022/06/11 07:53:04;;;;;;;13.00;3.63;;;26.80;82.40;;;;;;5068564;28;20162;-76
2022/06/11 07:55:30;;;;;;;17.90;4.50;;;25.90;84.20;;;;;;5068667;28;20049;-76
2022/06/11 07:57:57;;;;;;;14.35;4.32;;;25.10;87.60;;;;;;5068716;28;20173;-75
2022/06/11 08:00:26;;;;;;;18.55;4.70;;;25.20;88.20;;;;;;5052152;28;20371;-76
2022/06/11 08:02:52;;;;;;;17.10;4.40;;;25.30;88.90;;;;;;5068370;28;20491;-75
2022/06/11 08:05:18;;;;;;;15.63;4.53;;;25.50;90.10;;;;;;5068681;28;20058;-75
2022/06/11 08:07:44;;;;;;;15.80;4.07;;;26.10;89.10;;;;;;5068604;28;20068;-76
2022/06/11 08:10:11;;;;;;;13.75;3.90;;;26.40;87.30;;;;;;5068655;28;20486;-76
2022/06/11 08:12:36;;;;;;;17.23;4.40;;;26.10;87.20;;;;;;5068383;28;20044;-76
2022/06/11 08:15:03;;;;;;;20.08;4.88;;;25.60;87.40;;;;;;5051690;28;20044;-76
2022/06/11 08:17:30;;;;;;;16.58;4.53;;;25.20;89.30;;;;;;5053820;28;20037;-76
2022/06/11 08:19:55;;;;;;;14.48;4.22;;;25.00;89.60;;;;;;5072567;28;20508;-76
2022/06/11 08:22:21;;;;;;;16.13;4.13;;;24.60;90.70;;;;;;5071910;28;20040;-76
2022/06/11 08:24:48;;;;;;;21.50;4.35;;;24.00;90.50;;;;;;5072013;28;20131;-76
2022/06/11 08:27:14;;;;;;;16.35;4.15;;;23.70;91.20;;;;;;5072113;28;20052;-76
2022/06/11 08:29:39;;;;;;;17.23;4.60;;;23.60;92.00;;;;;;5055486;28;20430;-75
2022/06/11 08:32:07;;;;;;;13.20;4.22;;;23.30;92.80;;;;;;5071797;28;20036;-75
2022/06/11 08:34:44;;;;;;;16.25;4.35;;;23.20;93.50;;;;;;5072163;28;20044;-75
2022/06/11 08:37:10;;;;;;;16.35;3.95;;;23.00;93.30;;;;;;5055318;28;20105;-75
2022/06/11 08:39:36;;;;;;;17.25;4.53;;;22.90;94.00;;;;;;5071790;28;20044;-75
2022/06/11 08:42:03;;;;;;;14.05;3.75;;;22.70;94.30;;;;;;5071611;28;20044;-75
2022/06/11 08:44:33;;;;;;;20.33;4.82;;;22.60;95.30;;;;;;5071872;28;20044;-75
2022/06/11 08:47:01;;;;;;;15.35;4.32;;;22.50;96.20;;;;;;5071692;28;20152;-75
2022/06/11 08:49:31;;;;;;;17.77;4.35;;;22.60;96.50;;;;;;5071988;28;20040;-74
2022/06/11 08:52:04;;;;;;;13.57;3.60;;;22.60;97.20;;;;;;5071799;28;20083;-75
2022/06/11 08:54:35;;;;;;;13.98;4.30;;;22.80;98.90;;;;;;5071610;28;20044;-76
2022/06/11 08:57:31;;;;;;;15.50;4.23;;;22.90;96.30;;;;;;5071527;28;20040;-76
2022/06/11 09:00:06;;;;;;;17.63;4.00;;;23.00;96.80;;;;;;5071588;28;20057;-76
2022/06/11 09:02:43;;;;;;;16.40;4.38;;;23.10;96.20;;;;;;5071344;28;20044;-76
2022/06/11 09:05:42;;;;;;;13.98;4.03;;;23.10;94.60;;;;;;5055047;28;20456;-76
2022/06/11 09:08:26;;;;;;;14.75;3.92;;;23.00;95.90;;;;;;5071320;28;20036;-76
2022/06/11 09:11:20;;;;;;;14.73;4.03;;;23.10;95.50;;;;;;5071672;28;20382;-76
2022/06/11 09:14:04;;;;;;;10.88;3.60;;;23.00;95.50;;;;;;5054741;28;20037;-76
2022/06/11 09:16:40;;;;;;;14.85;3.78;;;22.80;94.70;;;;;;5071591;28;20044;-75
2022/06/11 09:19:18;;;;;;;12.88;4.07;;;22.60;95.60;;;;;;5071265;28;20047;-75
2022/06/11 09:21:47;;;;;;;14.30;4.03;;;22.60;95.80;;;;;;5071157;28;20048;-75
2022/06/11 09:24:27;;;;;;;13.82;3.85;;;22.70;95.80;;;;;;5070948;28;20411;-76
2022/06/11 09:27:23;;;;;;;11.43;3.40;;;22.70;96.60;;;;;;5071022;28;20119;-76
2022/06/11 09:30:16;;;;;;;13.27;3.63;;;22.70;94.80;;;;;;5082009;28;20052;-75
2022/06/11 09:32:51;;;;;;;13.20;3.25;;;22.80;95.40;;;;;;5070832;28;20102;-76
2022/06/11 09:35:21;;;;;;;10.43;3.05;;;22.70;93.50;;;;;;5054773;28;20044;-76
2022/06/11 09:37:55;;;;;;;12.55;2.92;;;22.80;92.90;;;;;;5060832;22;20048;-78
2022/06/11 09:40:30;;;;;;;10.02;3.08;;;22.70;93.90;;;;;;5015048;28;20478;-78
2022/06/11 09:43:15;;;;;;;10.63;3.10;;;22.70;94.20;;;;;;5014610;28;20103;-78
2022/06/11 09:45:46;;;;;;;12.13;3.28;;;22.60;93.00;;;;;;5015093;28;20364;-78
2022/06/11 09:48:24;;;;;;;10.88;2.72;;;22.60;93.10;;;;;;5014749;28;20489;-78
2022/06/11 09:51:13;;;;;;;13.05;2.97;;;22.40;92.70;;;;;;5014621;28;20052;-78
2022/06/11 09:53:55;;;;;;;10.65;3.42;;;22.30;93.30;;;;;;5014548;28;20120;-78
2022/06/11 09:56:38;;;;;;;15.65;3.53;;;22.50;92.30;;;;;;5014684;28;20057;-79
2022/06/11 09:59:31;;;;;;;10.82;2.95;;;22.60;94.00;;;;;;5014132;28;20060;-79
2022/06/11 10:02:22;;;;;;;11.13;2.95;;;22.60;91.50;;;;;;5014323;28;20045;-78
2022/06/11 10:04:49;;;;;;;10.70;2.45;;;22.60;92.10;;;;;;5014665;28;20348;-79
2022/06/11 10:07:20;;;;;;;11.93;2.95;;;22.60;92.70;;;;;;5014222;28;20354;-78
2022/06/11 10:10:16;;;;;;;7.78;2.42;;;22.70;92.80;;;;;;5014114;28;20037;-79
2022/06/11 10:12:51;;;;;;;10.10;2.97;;;22.80;93.50;;;;;;5011229;28;20533;-78
2022/06/11 10:15:20;;;;;;;7.72;2.67;;;23.00;92.60;;;;;;5014367;28;20128;-78
2022/06/11 10:18:02;;;;;;;11.50;3.17;;;22.80;92.10;;;;;;5013995;28;20041;-78
2022/06/11 10:20:38;;;;;;;11.80;2.88;;;22.80;89.40;;;;;;5013830;28;20057;-79
2022/06/11 10:23:07;;;;;;;11.05;2.40;;;22.90;91.90;;;;;;5013983;28;20065;-79
2022/06/11 10:25:40;;;;;;;10.77;2.75;;;23.10;92.10;;;;;;5013999;28;20099;-79
2022/06/11 10:28:31;;;;;;;11.27;3.13;;;23.10;91.00;;;;;;5013972;28;20041;-78
2022/06/11 10:31:02;;;;;;;8.07;2.15;;;23.00;90.00;;;;;;5013862;28;20037;-79
2022/06/11 10:34:00;;;;;;;7.53;2.25;;;23.00;91.40;;;;;;5014031;28;20180;-78
2022/06/11 10:36:42;;;;;;;7.47;2.28;;;22.90;91.20;;;;;;5007781;28;20157;-79
2022/06/11 10:39:21;;;;;;;12.68;2.58;;;22.90;86.20;;;;;;5005573;28;20061;-76
2022/06/11 10:42:04;;;;;;;7.68;2.17;;;22.90;91.10;;;;;;5029792;28;20045;-75
2022/06/11 10:44:36;;;;;;;11.63;2.55;;;22.90;91.90;;;;;;5029841;28;20037;-75
2022/06/11 10:47:11;;;;;;;;;;;23.00;91.20;;;;;;5046888;28;20479;-76
2022/06/11 10:49:36;;;;;;;10.68;2.60;;;23.00;90.60;;;;;;5029781;28;19925;-76
2022/06/11 10:52:15;;;;;;;6.72;1.98;;;23.10;89.90;;;;;;5029659;28;20049;-75
2022/06/11 10:54:41;;;;;;;10.48;1.90;;;23.10;90.70;;;;;;5029597;28;20056;-76
2022/06/11 10:57:16;;;;;;;7.68;1.67;;;23.10;90.40;;;;;;5029477;28;20407;-75
2022/06/11 10:59:47;;;;;;;9.68;2.40;;;23.10;87.30;;;;;;5045972;28;20034;-75
2022/06/11 11:02:51;;;;;;;7.95;2.42;;;23.10;90.40;;;;;;5029501;28;20060;-75
2022/06/11 11:05:18;;;;;;;8.43;2.65;;;23.10;87.20;;;;;;5028475;28;20092;-75
2022/06/11 11:07:58;;;;;;;9.77;2.40;;;23.00;87.10;;;;;;5029329;28;20042;-75
2022/06/11 11:10:30;;;;;;;10.50;2.60;;;22.90;83.20;;;;;;5029222;28;20038;-75
2022/06/11 11:12:59;;;;;;;11.98;3.47;;;23.00;87.10;;;;;;5029686;28;20049;-75
2022/06/11 11:15:28;;;;;;;10.45;2.85;;;22.80;87.90;;;;;;5029275;28;20044;-75
2022/06/11 11:17:59;;;;;;;8.63;2.17;;;22.90;90.70;;;;;;5029254;28;20048;-75
2022/06/11 11:20:38;;;;;;;;;;;22.80;90.10;;;;;;5030926;28;20033;-75
2022/06/11 11:23:19;;;;;;;9.35;2.75;;;22.80;91.40;;;;;;5029126;28;20051;-75
2022/06/11 11:25:47;;;;;;;;;;;22.60;90.10;;;;;;5029901;28;20041;-75
2022/06/11 11:28:24;;;;;;;13.02;2.72;;;22.70;91.00;;;;;;5029359;28;19997;-79
2022/06/11 11:31:01;;;;;;;10.68;2.67;;;22.90;91.20;;;;;;5029450;28;20092;-79
2022/06/11 11:33:36;;;;;;;10.32;2.63;;;23.10;88.50;;;;;;5029392;28;20041;-78
2022/06/11 11:36:12;;;;;;;10.85;2.72;;;22.90;90.10;;;;;;5029332;28;20327;-79
2022/06/11 11:38:38;;;;;;;9.55;2.78;;;23.00;91.30;;;;;;5028983;28;20057;-78
2022/06/11 11:41:04;;;;;;;10.60;2.88;;;23.10;90.60;;;;;;5029074;28;20045;-78
2022/06/11 11:43:42;;;;;;;12.45;3.05;;;23.10;92.10;;;;;;5029158;28;20045;-79
2022/06/11 11:46:22;;;;;;;10.88;2.97;;;23.20;92.70;;;;;;5029100;28;20033;-78
2022/06/11 11:48:57;;;;;;;9.55;2.90;;;23.20;91.70;;;;;;5029228;28;20680;-78
2022/06/11 11:51:31;;;;;;;9.25;2.40;;;23.00;91.10;;;;;;5029336;28;20041;-78
2022/06/11 11:54:04;;;;;;;11.15;2.47;;;22.90;91.70;;;;;;5033407;28;20120;-79
2022/06/11 11:56:36;;;;;;;8.98;2.28;;;22.70;91.80;;;;;;5033010;28;20049;-78
2022/06/11 11:59:09;;;;;;;11.05;2.80;;;22.70;91.00;;;;;;5033451;28;20552;-79
2022/06/11 12:01:35;;;;;;;10.15;2.85;;;22.80;91.30;;;;;;5032991;28;20037;-79
2022/06/11 12:04:23;;;;;;;9.10;2.50;;;22.70;92.30;;;;;;5033103;28;20041;-79
2022/06/11 12:06:55;;;;;;;8.38;2.58;;;22.80;92.60;;;;;;5033176;28;20395;-79
2022/06/11 12:09:33;;;;;;;11.55;2.78;;;22.80;91.00;;;;;;5032905;28;20105;-79
2022/06/11 12:12:28;;;;;;;13.52;3.10;;;22.80;91.10;;;;;;5032989;28;20564;-79
2022/06/11 12:14:59;;;;;;;10.30;2.45;;;22.90;90.00;;;;;;5033014;28;20072;-79
2022/06/11 12:17:45;;;;;;;8.93;2.72;;;23.00;90.10;;;;;;5032744;28;20045;-78
2022/06/11 12:20:32;;;;;;;11.63;3.35;;;23.20;92.20;;;;;;5033165;28;20052;-78
2022/06/11 12:23:39;;;;;;;11.07;3.67;;;23.10;90.80;;;;;;5032674;28;20057;-79
2022/06/11 12:26:26;;;;;;;12.60;2.70;;;23.10;88.80;;;;;;5030805;28;20060;-79
2022/06/11 12:29:10;;;;;;;9.82;2.78;;;23.10;90.70;;;;;;5032602;28;20052;-79
2022/06/11 12:31:35;;;;;;;9.85;2.78;;;23.20;91.80;;;;;;5032568;28;20044;-79
2022/06/11 12:34:02;;;;;;;8.18;2.70;;;23.40;91.10;;;;;;5032644;28;20394;-79
2022/06/11 12:36:53;;;;;;;12.80;2.83;;;23.30;91.30;;;;;;5032298;28;20083;-79
2022/06/11 12:39:53;;;;;;;8.80;2.83;;;23.30;91.20;;;;;;5032284;28;20069;-79
2022/06/11 12:42:50;;;;;;;9.82;2.45;;;23.40;90.30;;;;;;5032351;28;20048;-79
2022/06/11 12:45:31;;;;;;;9.02;2.50;;;23.40;91.80;;;;;;5032512;28;20130;-78
2022/06/11 12:48:19;;;;;;;8.95;2.53;;;23.50;91.00;;;;;;5032352;28;20041;-79
2022/06/11 12:51:06;;;;;;;10.50;2.80;;;23.40;88.70;;;;;;5032213;28;20399;-79
2022/06/11 12:53:55;;;;;;;8.75;2.88;;;23.40;87.80;;;;;;5032418;28;20045;-80
2022/06/11 12:57:00;;;;;;;8.43;2.50;;;23.30;88.70;;;;;;5032080;28;20038;-79
2022/06/11 12:59:54;;;;;;;8.35;2.03;;;23.30;88.50;;;;;;5048670;28;20025;-79
2022/06/11 13:02:32;;;;;;;7.80;2.38;;;23.40;86.80;;;;;;5031456;28;20099;-79
2022/06/11 13:05:19;;;;;;;9.27;2.60;;;23.30;88.90;;;;;;5031868;28;20034;-78
2022/06/11 13:08:17;;;;;;;7.80;2.42;;;23.40;87.20;;;;;;5031793;28;20041;-79
2022/06/11 13:11:00;;;;;;;8.88;2.40;;;23.70;87.20;;;;;;5031807;28;20120;-79
2022/06/11 13:14:11;;;;;;;10.70;2.95;;;23.60;90.50;;;;;;5031779;28;20372;-79
2022/06/11 13:16:48;;;;;;;10.98;2.67;;;23.60;88.60;;;;;;5023163;28;20061;-79